createdAt,value
2016-08-29T00:00:43.857Z,99.99
2016-08-29T00:01:43.848Z,99.99
2016-08-29T00:02:43.953Z,99.99
2016-08-29T00:03:43.879Z,99.99
2016-08-29T00:04:43.963Z,99.99
2016-08-29T00:05:43.885Z,99.99
2016-08-29T00:06:43.927Z,99.99
2016-08-29T00:07:43.920Z,99.99
2016-08-29T00:08:43.933Z,99.99
2016-08-29T00:09:43.930Z,99.99
2016-08-29T00:10:43.862Z,99.99
2016-08-29T00:11:43.948Z,99.99
2016-08-29T00:12:43.865Z,99.99
2016-08-29T00:13:43.864Z,99.99
2016-08-29T00:14:43.939Z,99.99
2016-08-29T00:15:43.936Z,99.99
2016-08-29T00:16:43.942Z,99.99
2016-08-29T00:17:43.942Z,99.99
2016-08-29T00:18:43.935Z,99.99
2016-08-29T00:19:43.870Z,99.99
2016-08-29T00:20:43.945Z,99.99
2016-08-29T00:21:43.867Z,99.99
2016-08-29T00:22:43.877Z,99.99
2016-08-29T00:23:43.944Z,99.99
2016-08-29T00:24:43.951Z,99.99
2016-08-29T00:25:43.953Z,99.99
2016-08-29T00:26:43.956Z,99.99
2016-08-29T00:27:43.879Z,99.99
2016-08-29T00:28:43.875Z,99.99
2016-08-29T00:29:43.950Z,99.99
2016-08-29T00:30:43.889Z,99.99
2016-08-29T00:31:43.891Z,99.99
2016-08-29T00:32:43.955Z,99.99
2016-08-29T00:33:43.891Z,99.99
2016-08-29T00:34:43.965Z,99.99
2016-08-29T00:35:43.967Z,99.99
2016-08-29T00:36:43.966Z,99.99
2016-08-29T00:37:43.969Z,99.99
2016-08-29T00:38:43.961Z,99.99
2016-08-29T00:39:43.894Z,99.99
2016-08-29T00:40:43.971Z,99.99
2016-08-29T00:41:43.969Z,99.99
2016-08-29T00:42:43.975Z,99.99
2016-08-29T00:43:43.910Z,99.99
2016-08-29T00:44:43.977Z,99.99
2016-08-29T00:45:43.979Z,99.99
2016-08-29T00:46:43.908Z,99.99
2016-08-29T00:47:43.981Z,99.99
2016-08-29T00:48:43.908Z,99.99
2016-08-29T00:49:43.980Z,99.99
2016-08-29T00:50:43.989Z,99.99
2016-08-29T00:51:43.909Z,99.99
2016-08-29T00:52:43.918Z,99.99
2016-08-29T00:53:43.997Z,99.99
2016-08-29T00:54:43.987Z,99.99
2016-08-29T00:55:43.990Z,99.99
2016-08-29T00:56:43.987Z,99.99
2016-08-29T00:57:43.915Z,99.99
2016-08-29T00:58:43.996Z,99.99
2016-08-29T00:59:44.003Z,99.99
2016-08-29T01:00:43.923Z,99.99
2016-08-29T01:01:44.004Z,99.99
2016-08-29T01:02:43.999Z,99.99
2016-08-29T01:03:44.003Z,99.99
2016-08-29T01:04:43.932Z,99.99
2016-08-29T01:05:43.950Z,99.99
2016-08-29T01:06:43.933Z,99.99
2016-08-29T01:07:43.928Z,99.99
2016-08-29T01:08:44.018Z,99.99
2016-08-29T01:09:43.935Z,99.99
2016-08-29T01:10:43.935Z,99.99
2016-08-29T01:11:44.019Z,99.99
2016-08-29T01:12:43.944Z,99.99
2016-08-29T01:13:44.024Z,99.99
2016-08-29T01:14:43.938Z,99.99
2016-08-29T01:15:43.952Z,99.99
2016-08-29T01:16:44.029Z,99.99
2016-08-29T01:17:44.037Z,99.99
2016-08-29T01:18:43.946Z,99.99
2016-08-29T01:19:44.019Z,99.99
2016-08-29T01:20:43.947Z,99.99
2016-08-29T01:21:44.017Z,99.99
2016-08-29T01:22:44.025Z,99.99
2016-08-29T01:23:43.958Z,99.99
2016-08-29T01:24:44.032Z,99.99
2016-08-29T01:25:44.039Z,99.99
2016-08-29T01:26:43.966Z,99.99
2016-08-29T01:27:44.038Z,99.99
2016-08-29T01:28:43.968Z,99.99
2016-08-29T01:29:44.182Z,99.99
2016-08-29T01:30:43.968Z,99.99
2016-08-29T01:31:43.974Z,99.99
2016-08-29T01:32:44.031Z,99.99
2016-08-29T01:33:43.987Z,99.99
2016-08-29T01:34:43.968Z,99.99
2016-08-29T01:35:44.049Z,99.99
2016-08-29T01:36:43.983Z,99.99
2016-08-29T01:37:43.977Z,99.99
2016-08-29T01:38:44.047Z,99.99
2016-08-29T01:39:44.054Z,99.99
2016-08-29T01:40:43.980Z,99.99
2016-08-29T01:41:44.055Z,99.99
2016-08-29T01:42:43.980Z,99.99
2016-08-29T01:43:43.995Z,99.99
2016-08-29T01:44:43.987Z,99.99
2016-08-29T01:45:43.982Z,99.99
2016-08-29T01:46:43.990Z,99.99
2016-08-29T01:47:44.061Z,99.99
2016-08-29T01:48:44.068Z,99.99
2016-08-29T01:49:44.064Z,99.99
2016-08-29T01:50:43.989Z,99.99
2016-08-29T01:51:44.794Z,99.99
2016-08-29T01:52:44.005Z,99.99
2016-08-29T01:53:44.067Z,99.99
2016-08-29T01:54:43.989Z,99.99
2016-08-29T01:55:44.003Z,99.99
2016-08-29T01:56:44.009Z,99.99
2016-08-29T01:57:44.005Z,99.99
2016-08-29T01:58:43.997Z,99.99
2016-08-29T01:59:44.077Z,99.99
2016-08-29T02:00:44.073Z,99.99
2016-08-29T02:01:44.074Z,99.99
2016-08-29T02:02:44.006Z,99.99
2016-08-29T02:03:44.074Z,99.99
2016-08-29T02:04:44.085Z,99.99
2016-08-29T02:05:44.758Z,99.99
2016-08-29T02:06:44.094Z,99.99
2016-08-29T02:07:44.013Z,99.99
2016-08-29T02:08:44.017Z,99.99
2016-08-29T02:09:44.015Z,99.99
2016-08-29T02:10:44.080Z,99.99
2016-08-29T02:11:44.092Z,99.99
2016-08-29T02:12:44.026Z,99.99
2016-08-29T02:13:44.102Z,99.99
2016-08-29T02:14:44.105Z,99.99
2016-08-29T02:15:44.101Z,99.99
2016-08-29T02:16:44.102Z,99.99
2016-08-29T02:17:44.137Z,99.99
2016-08-29T02:18:44.111Z,99.99
2016-08-29T02:19:44.096Z,99.99
2016-08-29T02:20:44.028Z,99.99
2016-08-29T02:21:44.039Z,99.99
2016-08-29T02:22:44.034Z,99.99
2016-08-29T02:23:44.034Z,99.99
2016-08-29T02:24:44.103Z,99.99
2016-08-29T02:25:44.113Z,99.99
2016-08-29T02:26:44.119Z,99.99
2016-08-29T02:27:44.109Z,99.99
2016-08-29T02:28:44.123Z,99.99
2016-08-29T02:29:44.117Z,99.99
2016-08-29T02:30:44.047Z,99.99
2016-08-29T02:31:44.124Z,99.99
2016-08-29T02:32:44.050Z,99.99
2016-08-29T02:33:44.051Z,99.99
2016-08-29T02:34:44.122Z,99.99
2016-08-29T02:35:44.050Z,99.99
2016-08-29T02:36:44.121Z,99.99
2016-08-29T02:37:44.125Z,99.99
2016-08-29T02:38:44.123Z,99.99
2016-08-29T02:39:44.139Z,99.99
2016-08-29T02:40:44.131Z,99.99
2016-08-29T02:41:44.055Z,99.99
2016-08-29T02:42:44.138Z,99.99
2016-08-29T02:43:44.062Z,99.99
2016-08-29T02:44:44.144Z,99.99
2016-08-29T02:45:44.066Z,99.99
2016-08-29T02:46:44.140Z,99.99
2016-08-29T02:47:44.146Z,99.99
2016-08-29T02:48:44.151Z,99.99
2016-08-29T02:49:44.148Z,99.99
2016-08-29T02:50:44.075Z,99.99
2016-08-29T02:51:44.076Z,99.99
2016-08-29T02:52:44.157Z,99.99
2016-08-29T02:53:44.072Z,99.99
2016-08-29T02:54:44.158Z,99.99
2016-08-29T02:55:44.154Z,99.99
2016-08-29T02:56:44.088Z,99.99
2016-08-29T02:57:44.086Z,99.99
2016-08-29T02:58:44.166Z,99.99
2016-08-29T02:59:44.082Z,99.99
2016-08-29T03:00:44.877Z,99.99
2016-08-29T03:01:44.096Z,99.99
2016-08-29T03:02:44.092Z,99.99
2016-08-29T03:03:44.093Z,99.99
2016-08-29T03:04:44.094Z,99.99
2016-08-29T03:05:44.098Z,99.99
2016-08-29T03:06:44.098Z,99.99
2016-08-29T03:07:44.100Z,99.99
2016-08-29T03:08:44.186Z,99.99
2016-08-29T03:09:44.099Z,99.99
2016-08-29T03:10:44.182Z,99.99
2016-08-29T03:11:44.179Z,99.99
2016-08-29T03:12:44.179Z,99.99
2016-08-29T03:13:44.176Z,99.99
2016-08-29T03:14:44.103Z,99.99
2016-08-29T03:15:44.100Z,99.99
2016-08-29T03:16:44.103Z,99.99
2016-08-29T03:17:44.186Z,99.99
2016-08-29T03:18:44.117Z,99.99
2016-08-29T03:19:44.113Z,99.99
2016-08-29T03:20:44.114Z,99.99
2016-08-29T03:21:44.110Z,99.99
2016-08-29T03:22:44.187Z,99.99
2016-08-29T03:23:44.190Z,99.99
2016-08-29T03:24:44.131Z,99.99
2016-08-29T03:25:44.204Z,99.99
2016-08-29T03:26:44.189Z,99.99
2016-08-29T03:27:44.195Z,99.99
2016-08-29T03:28:44.206Z,99.99
2016-08-29T03:29:44.202Z,99.99
2016-08-29T03:30:44.119Z,99.99
2016-08-29T03:31:44.210Z,99.99
2016-08-29T03:32:44.204Z,99.99
2016-08-29T03:33:44.201Z,99.99
2016-08-29T03:34:44.211Z,99.99
2016-08-29T03:35:44.209Z,99.99
2016-08-29T03:36:44.142Z,99.99
2016-08-29T03:37:44.140Z,99.99
2016-08-29T03:38:44.207Z,99.99
2016-08-29T03:39:44.211Z,99.99
2016-08-29T03:40:44.844Z,99.99
2016-08-29T03:41:44.209Z,99.99
2016-08-29T03:42:44.216Z,99.99
2016-08-29T03:43:44.139Z,99.99
2016-08-29T03:44:44.150Z,99.99
2016-08-29T03:45:44.144Z,99.99
2016-08-29T03:46:44.156Z,99.99
2016-08-29T03:47:44.150Z,99.99
2016-08-29T03:48:44.228Z,99.99
2016-08-29T03:49:44.221Z,99.99
2016-08-29T03:50:44.241Z,99.99
2016-08-29T03:51:44.152Z,99.99
2016-08-29T03:52:44.227Z,99.99
2016-08-29T03:53:44.158Z,99.99
2016-08-29T03:54:44.239Z,99.99
2016-08-29T03:55:44.245Z,99.99
2016-08-29T03:56:44.166Z,99.99
2016-08-29T03:57:44.235Z,99.99
2016-08-29T03:58:44.237Z,99.99
2016-08-29T03:59:44.164Z,99.99
2016-08-29T04:00:44.247Z,99.99
2016-08-29T04:01:44.245Z,99.99
2016-08-29T04:02:44.169Z,99.99
2016-08-29T04:03:44.242Z,99.99
2016-08-29T04:04:44.288Z,99.99
2016-08-29T04:05:44.179Z,99.99
2016-08-29T04:06:44.176Z,99.99
2016-08-29T04:07:44.786Z,99.99
2016-08-29T04:08:44.256Z,99.99
2016-08-29T04:09:44.253Z,99.99
2016-08-29T04:10:44.269Z,99.99
2016-08-29T04:11:44.182Z,99.99
2016-08-29T04:12:44.282Z,99.99
2016-08-29T04:13:44.259Z,99.99
2016-08-29T04:14:44.188Z,99.99
2016-08-29T04:15:44.267Z,99.99
2016-08-29T04:16:44.195Z,99.99
2016-08-29T04:17:44.195Z,99.99
2016-08-29T04:18:44.261Z,99.99
2016-08-29T04:19:44.209Z,99.99
2016-08-29T04:20:44.274Z,99.99
2016-08-29T04:21:44.278Z,99.99
2016-08-29T04:22:44.205Z,99.99
2016-08-29T04:23:44.287Z,99.99
2016-08-29T04:24:44.209Z,99.99
2016-08-29T04:25:44.210Z,99.99
2016-08-29T04:26:44.204Z,99.99
2016-08-29T04:27:44.282Z,99.99
2016-08-29T04:28:44.935Z,99.99
2016-08-29T04:29:44.203Z,99.99
2016-08-29T04:30:44.286Z,99.99
2016-08-29T04:31:44.219Z,99.99
2016-08-29T04:32:44.215Z,99.99
2016-08-29T04:33:44.217Z,99.99
2016-08-29T04:34:44.299Z,99.99
2016-08-29T04:35:44.225Z,99.99
2016-08-29T04:36:44.225Z,99.99
2016-08-29T04:37:44.260Z,99.99
2016-08-29T04:38:44.293Z,99.99
2016-08-29T04:39:44.296Z,99.99
2016-08-29T04:40:44.223Z,99.99
2016-08-29T04:41:44.219Z,99.99
2016-08-29T04:42:44.304Z,99.99
2016-08-29T04:43:44.230Z,99.99
2016-08-29T04:44:44.317Z,99.99
2016-08-29T04:45:44.312Z,99.99
2016-08-29T04:46:44.230Z,99.99
2016-08-29T04:47:44.230Z,99.99
2016-08-29T04:48:44.313Z,99.99
2016-08-29T04:49:44.236Z,99.99
2016-08-29T04:50:44.315Z,99.99
2016-08-29T04:51:44.240Z,99.99
2016-08-29T04:52:45.238Z,99.99
2016-08-29T04:53:44.323Z,99.99
2016-08-29T04:54:44.245Z,99.99
2016-08-29T04:55:44.252Z,99.99
2016-08-29T04:56:44.327Z,99.99
2016-08-29T04:57:45.461Z,99.99
2016-08-29T04:58:44.975Z,99.99
2016-08-29T04:59:44.345Z,99.99
2016-08-29T05:00:44.394Z,99.99
2016-08-29T05:01:44.317Z,99.99
2016-08-29T05:02:44.355Z,99.99
2016-08-29T05:03:44.260Z,99.99
2016-08-29T05:04:44.332Z,99.99
2016-08-29T05:05:44.339Z,99.99
2016-08-29T05:06:44.257Z,99.99
2016-08-29T05:07:44.374Z,99.99
2016-08-29T05:08:44.284Z,99.99
2016-08-29T05:09:44.270Z,99.99
2016-08-29T05:10:44.356Z,99.99
2016-08-29T05:11:44.279Z,99.99
2016-08-29T05:12:44.261Z,99.99
2016-08-29T05:13:44.267Z,99.99
2016-08-29T05:14:44.282Z,99.99
2016-08-29T05:15:44.278Z,99.99
2016-08-29T05:16:45.269Z,99.99
2016-08-29T05:17:44.280Z,99.99
2016-08-29T05:18:44.278Z,99.99
2016-08-29T05:19:44.351Z,99.99
2016-08-29T05:20:44.359Z,99.99
2016-08-29T05:21:44.361Z,99.99
2016-08-29T05:22:44.287Z,99.99
2016-08-29T05:23:44.279Z,99.99
2016-08-29T05:24:44.933Z,99.99
2016-08-29T05:25:44.354Z,99.99
2016-08-29T05:26:44.362Z,99.99
2016-08-29T05:27:44.361Z,99.99
2016-08-29T05:28:44.296Z,99.99
2016-08-29T05:29:44.284Z,99.99
2016-08-29T05:30:44.295Z,99.99
2016-08-29T05:31:44.310Z,99.99
2016-08-29T05:32:45.062Z,99.99
2016-08-29T05:33:44.312Z,99.99
2016-08-29T05:34:44.372Z,99.99
2016-08-29T05:35:44.676Z,99.99
2016-08-29T05:36:44.377Z,99.99
2016-08-29T05:37:44.299Z,99.99
2016-08-29T05:38:44.400Z,99.99
2016-08-29T05:39:44.301Z,99.99
2016-08-29T05:40:45.370Z,99.99
2016-08-29T05:41:44.333Z,99.99
2016-08-29T05:42:44.308Z,99.99
2016-08-29T05:43:44.300Z,99.99
2016-08-29T05:44:44.380Z,99.99
2016-08-29T05:45:44.306Z,99.99
2016-08-29T05:46:44.309Z,99.99
2016-08-29T05:47:44.312Z,99.99
2016-08-29T05:48:44.337Z,99.99
2016-08-29T05:49:44.387Z,99.99
2016-08-29T05:50:44.322Z,99.99
2016-08-29T05:51:44.337Z,99.99
2016-08-29T05:52:44.408Z,99.99
2016-08-29T05:53:44.318Z,99.99
2016-08-29T05:54:44.343Z,99.99
2016-08-29T05:55:44.327Z,99.99
2016-08-29T05:56:44.420Z,99.99
2016-08-29T05:57:44.410Z,99.99
2016-08-29T05:58:44.405Z,99.99
2016-08-29T05:59:44.445Z,99.99
2016-08-29T06:00:44.345Z,99.99
2016-08-29T06:01:44.519Z,99.99
2016-08-29T06:02:44.404Z,99.99
2016-08-29T06:03:44.412Z,99.99
2016-08-29T06:04:45.083Z,99.99
2016-08-29T06:05:44.414Z,99.99
2016-08-29T06:06:44.425Z,99.99
2016-08-29T06:07:44.415Z,99.99
2016-08-29T06:08:44.412Z,99.99
2016-08-29T06:09:44.350Z,99.99
2016-08-29T06:10:45.114Z,99.99
2016-08-29T06:11:44.519Z,99.99
2016-08-29T06:12:44.471Z,99.99
2016-08-29T06:14:32.286Z,99.99
2016-08-29T06:15:53.008Z,99.99
2016-08-29T06:45:40.872Z,99.99
2016-08-29T06:46:38.983Z,99.99
2016-08-29T06:47:38.992Z,99.99
2016-08-29T06:54:39.103Z,99.99
2016-08-29T06:55:38.434Z,99.99
2016-08-29T07:05:14.344Z,99.99
2016-08-29T07:06:12.865Z,99.99
2016-08-29T07:07:12.777Z,99.99
2016-08-29T07:08:12.818Z,99.99
2016-08-29T07:09:13.709Z,99.99
2016-08-29T07:13:15.772Z,99.99
2016-08-29T07:14:13.541Z,99.99
2016-08-29T07:15:12.891Z,99.99
2016-08-29T07:16:12.712Z,99.99
2016-08-29T07:17:12.762Z,99.99
2016-08-29T07:18:12.822Z,99.99
2016-08-29T07:19:12.706Z,99.99
2016-08-29T07:20:12.773Z,99.99
2016-08-29T07:21:12.770Z,99.99
2016-08-29T07:22:12.758Z,99.99
2016-08-29T07:23:12.761Z,99.99
2016-08-29T07:24:12.765Z,99.99
2016-08-29T07:25:12.695Z,99.99
2016-08-29T07:26:12.766Z,99.99
2016-08-29T07:27:13.291Z,99.99
2016-08-29T07:28:12.761Z,99.99
2016-08-29T07:29:13.738Z,99.99
2016-08-29T07:30:12.767Z,99.99
2016-08-29T07:31:12.770Z,99.99
2016-08-29T07:32:12.757Z,99.99
2016-08-29T07:33:12.873Z,99.99
2016-08-29T07:34:12.678Z,99.99
2016-08-29T07:35:12.692Z,99.99
2016-08-29T07:36:12.770Z,99.99
2016-08-29T07:37:12.719Z,99.99
2016-08-29T07:38:12.714Z,99.99
2016-08-29T07:39:12.698Z,99.99
2016-08-29T07:40:12.720Z,99.99
2016-08-29T07:41:12.768Z,99.99
2016-08-29T07:42:12.690Z,99.99
2016-08-29T07:43:12.773Z,99.99
2016-08-29T07:44:13.425Z,99.99
2016-08-29T07:45:12.692Z,99.99
2016-08-29T07:46:13.410Z,99.99
2016-08-29T07:47:14.102Z,99.99
2016-08-29T07:48:12.710Z,99.99
2016-08-29T07:49:12.708Z,99.99
2016-08-29T07:50:12.877Z,99.99
2016-08-29T07:51:12.807Z,99.99
2016-08-29T07:52:12.797Z,99.99
2016-08-29T07:54:13.953Z,99.99
2016-08-29T07:55:12.716Z,99.99
2016-08-29T07:56:12.802Z,99.99
2016-08-29T07:57:12.779Z,99.99
2016-08-29T07:58:12.738Z,99.99
2016-08-29T07:59:12.735Z,99.99
2016-08-29T08:00:12.839Z,99.99
2016-08-29T08:01:12.786Z,99.99
2016-08-29T08:02:12.793Z,99.99
2016-08-29T08:03:12.795Z,99.99
2016-08-29T08:04:13.659Z,99.99
2016-08-29T08:05:12.985Z,99.99
2016-08-29T08:11:15.934Z,99.99
2016-08-29T08:12:12.961Z,99.99
2016-08-29T08:13:13.148Z,99.99
2016-08-29T08:14:13.030Z,99.99
2016-08-29T08:15:13.444Z,99.99
2016-08-29T08:16:13.151Z,99.99
2016-08-29T08:17:12.955Z,99.99
2016-08-29T08:18:13.121Z,99.99
2016-08-29T08:19:13.111Z,99.99
2016-08-29T08:20:12.955Z,99.99
2016-08-29T08:21:14.130Z,99.99
2016-08-29T08:22:13.208Z,99.99
2016-08-29T08:23:12.860Z,99.99
2016-08-29T08:24:14.246Z,99.99
2016-08-29T08:25:13.993Z,99.99
2016-08-29T08:26:13.635Z,99.99
2016-08-29T08:27:13.038Z,99.99
2016-08-29T08:28:17.600Z,99.99
2016-08-29T08:29:13.522Z,99.99
2016-08-29T08:30:13.579Z,99.99
2016-08-29T08:31:12.934Z,99.99
2016-08-29T08:32:12.939Z,99.99
2016-08-29T08:38:13.926Z,99.99
2016-08-29T08:39:14.498Z,99.99
2016-08-29T08:40:13.062Z,99.99
2016-08-29T08:41:13.943Z,99.99
2016-08-29T08:42:13.987Z,99.99
2016-08-29T08:43:13.621Z,99.99
2016-08-29T09:22:14.271Z,99.99
2016-08-29T09:23:13.064Z,99.99
2016-08-29T09:25:19.890Z,99.99
2016-08-29T09:26:13.818Z,99.99
2016-08-29T09:37:13.769Z,99.99
2016-08-29T12:09:14.721Z,77.25
2016-08-29T12:10:13.505Z,76.34
2016-08-29T12:11:14.021Z,76.76
2016-08-29T12:12:13.958Z,76.57
2016-08-29T12:13:13.485Z,76.57
2016-08-29T12:18:16.007Z,72.06
2016-08-29T12:19:13.455Z,71.94
2016-08-29T12:20:14.088Z,72.26
2016-08-29T12:21:13.500Z,71.1
2016-08-29T12:22:14.741Z,71.74
2016-08-29T12:23:29.048Z,72.16
2016-08-29T12:24:14.797Z,72.64
2016-08-29T12:25:14.136Z,73.42
2016-08-29T12:26:14.721Z,73.22
2016-08-29T12:27:14.577Z,75.02
2016-08-29T12:28:14.257Z,76.18
2016-08-29T12:29:15.288Z,76.53
2016-08-29T12:30:14.318Z,76.76
2016-08-29T12:31:13.574Z,78.36
2016-08-29T12:32:14.230Z,76.37
2016-08-29T12:33:14.796Z,75.99
2016-08-29T12:34:13.484Z,75.89
2016-08-29T12:35:13.572Z,74.06
2016-08-29T12:36:15.689Z,73.58
2016-08-29T12:37:13.345Z,74.16
2016-08-29T12:38:13.340Z,74.93
2016-08-29T12:39:13.421Z,75.57
2016-08-29T12:40:13.570Z,75.41
2016-08-29T12:41:13.421Z,75.22
2016-08-29T12:42:13.448Z,74.16
2016-08-29T12:43:13.760Z,74.16
2016-08-29T12:44:13.823Z,74.54
2016-08-29T12:45:13.656Z,75.31
2016-08-29T12:46:13.343Z,73.9
2016-08-29T12:47:13.409Z,73.61
2016-08-29T12:48:13.330Z,74.25
2016-08-29T12:49:13.338Z,74.51
2016-08-29T12:50:13.340Z,74.06
2016-08-29T12:51:13.338Z,73.86
2016-08-29T12:52:13.454Z,74.25
2016-08-29T12:53:13.451Z,74.54
2016-08-29T12:54:13.414Z,74.73
2016-08-29T12:55:13.445Z,75.37
2016-08-29T12:56:14.008Z,75.31
2016-08-29T12:57:13.380Z,75.41
2016-08-29T12:58:13.484Z,74.93
2016-08-29T12:59:13.432Z,75.12
2016-08-29T13:00:13.436Z,74.93
2016-08-29T13:01:13.358Z,76.15
2016-08-29T13:02:13.507Z,76.53
2016-08-29T13:03:16.779Z,76.78
2016-08-29T13:04:13.445Z,76.92
2016-08-29T13:05:13.568Z,76.72
2016-08-29T13:06:13.481Z,76.72
2016-08-29T13:07:13.390Z,76.53
2016-08-29T13:08:13.371Z,76.15
2016-08-29T13:09:13.454Z,75.95
2016-08-29T13:10:13.400Z,76.34
2016-08-29T13:11:13.381Z,76.43
2016-08-29T13:12:13.504Z,76.63
2016-08-29T13:13:13.407Z,77.01
2016-08-29T13:14:14.125Z,76.63
2016-08-29T13:15:13.424Z,77.01
2016-08-29T13:16:13.408Z,77.65
2016-08-29T13:17:13.405Z,77.59
2016-08-29T13:18:13.533Z,77.11
2016-08-29T13:19:13.466Z,77.59
2016-08-29T13:20:13.510Z,76.92
2016-08-29T13:21:13.386Z,76.43
2016-08-29T13:22:13.728Z,76.72
2016-08-29T13:23:13.824Z,76.53
2016-08-29T13:24:14.457Z,76.34
2016-08-29T13:25:13.843Z,75.99
2016-08-29T13:26:13.727Z,75.06
2016-08-29T13:27:13.402Z,74.1
2016-08-29T13:28:13.531Z,73.03
2016-08-29T13:29:13.418Z,74
2016-08-29T13:30:15.028Z,73.22
2016-08-29T13:31:13.474Z,72.97
2016-08-29T13:32:13.506Z,72.24
2016-08-29T13:33:13.547Z,72.33
2016-08-29T13:34:13.442Z,73.3
2016-08-29T13:35:13.491Z,74.13
2016-08-29T13:36:13.500Z,74.19
2016-08-29T13:37:13.491Z,74.77
2016-08-29T13:38:13.488Z,74.93
2016-08-29T13:39:13.422Z,74.93
2016-08-29T13:40:13.524Z,74.68
2016-08-29T13:41:13.501Z,74
2016-08-29T13:42:13.475Z,73.9
2016-08-29T13:43:13.495Z,74.19
2016-08-29T13:44:13.543Z,73.13
2016-08-29T13:45:13.425Z,73.26
2016-08-29T13:46:13.507Z,72.91
2016-08-29T13:47:13.433Z,71.11
2016-08-29T13:48:14.116Z,71.5
2016-08-29T13:49:13.501Z,71.3
2016-08-29T13:50:13.445Z,70.62
2016-08-29T13:51:13.512Z,70.66
2016-08-29T13:52:13.607Z,71.14
2016-08-29T13:53:13.544Z,70.56
2016-08-29T13:54:13.469Z,70.31
2016-08-29T13:55:13.444Z,69.73
2016-08-29T13:56:13.459Z,70.37
2016-08-29T13:57:13.557Z,71.11
2016-08-29T13:58:13.635Z,71.78
2016-08-29T13:59:13.526Z,71.98
2016-08-29T14:00:13.579Z,72.24
2016-08-29T14:01:13.532Z,71.88
2016-08-29T14:02:13.563Z,71.04
2016-08-29T14:03:13.521Z,70.27
2016-08-29T14:04:13.493Z,70.24
2016-08-29T14:05:14.064Z,69.89
2016-08-29T14:06:14.020Z,69.79
2016-08-29T14:07:13.936Z,70.27
2016-08-29T14:08:13.957Z,70.08
2016-08-29T14:09:14.401Z,70.18
2016-08-29T14:10:13.865Z,70.47
2016-08-29T14:11:13.574Z,71.98
2016-08-29T14:12:13.685Z,72.04
2016-08-29T14:13:13.891Z,72.91
2016-08-29T14:14:13.611Z,72.97
2016-08-29T14:15:13.468Z,73.61
2016-08-29T14:16:13.557Z,73.96
2016-08-29T14:17:13.474Z,74.64
2016-08-29T14:18:13.558Z,75.41
2016-08-29T14:19:13.475Z,75.02
2016-08-29T14:20:13.496Z,75.85
2016-08-29T14:21:13.475Z,76.53
2016-08-29T14:22:13.477Z,76.43
2016-08-29T14:23:13.494Z,77.59
2016-08-29T14:24:13.483Z,77.01
2016-08-29T14:25:13.558Z,76.82
2016-08-29T14:26:13.577Z,77.21
2016-08-29T14:27:13.559Z,77.98
2016-08-29T14:28:13.568Z,77.98
2016-08-29T14:29:13.481Z,78.23
2016-08-29T14:30:13.728Z,77.88
2016-08-29T14:31:13.576Z,77.94
2016-08-29T14:32:13.560Z,78.36
2016-08-29T14:33:13.572Z,78.85
2016-08-29T14:34:13.513Z,78.56
2016-08-29T14:35:13.578Z,78.27
2016-08-29T14:36:13.596Z,77.53
2016-08-29T14:37:13.506Z,77.25
2016-08-29T14:38:13.572Z,76.86
2016-08-29T14:39:13.583Z,77.53
2016-08-29T14:40:13.504Z,77.25
2016-08-29T14:41:13.510Z,77.05
2016-08-29T14:42:14.791Z,77.09
2016-08-29T14:43:13.586Z,76.95
2016-08-29T14:44:13.619Z,77.15
2016-08-29T14:45:13.510Z,77.63
2016-08-29T14:46:13.509Z,78.27
2016-08-29T14:47:13.508Z,78.85
2016-08-29T14:48:13.592Z,78.66
2016-08-29T14:49:13.512Z,78.85
2016-08-29T14:50:13.523Z,78.69
2016-08-29T14:51:13.609Z,78.5
2016-08-29T14:52:13.529Z,78.21
2016-08-29T14:53:13.641Z,77.44
2016-08-29T14:54:13.622Z,78.31
2016-08-29T14:55:13.732Z,77.92
2016-08-29T14:56:13.528Z,78.94
2016-08-29T14:57:13.599Z,79.52
2016-08-29T14:58:13.526Z,80.06
2016-08-29T14:59:13.529Z,80.35
2016-08-29T15:00:14.159Z,80.64
2016-08-29T15:01:13.620Z,82.09
2016-08-29T15:02:13.620Z,81.85
2016-08-29T15:03:13.612Z,81.85
2016-08-29T15:04:13.560Z,82.62
2016-08-29T15:05:13.617Z,83.2
2016-08-29T15:06:13.578Z,83.55
2016-08-29T15:07:13.713Z,83.64
2016-08-29T15:08:13.633Z,82.87
2016-08-29T15:09:13.753Z,82.72
2016-08-29T15:10:13.545Z,83.5
2016-08-29T15:11:13.550Z,83.55
2016-08-29T15:12:13.627Z,82.97
2016-08-29T15:13:13.629Z,82.82
2016-08-29T15:14:13.550Z,82.05
2016-08-29T15:15:13.645Z,82.01
2016-08-29T15:16:13.556Z,82.05
2016-08-29T15:17:13.636Z,81.95
2016-08-29T15:18:13.649Z,81.72
2016-08-29T15:19:13.559Z,81.14
2016-08-29T15:20:13.633Z,81.81
2016-08-29T15:21:13.644Z,82.1
2016-08-29T15:22:13.671Z,81.81
2016-08-29T15:23:13.580Z,81.52
2016-08-29T15:24:13.563Z,82.01
2016-08-29T15:25:13.592Z,82.01
2016-08-29T15:26:13.576Z,81.62
2016-08-29T15:27:13.569Z,82.1
2016-08-29T15:28:13.566Z,82.29
2016-08-29T15:29:13.582Z,81.47
2016-08-29T15:30:13.627Z,82.05
2016-08-29T15:31:13.641Z,81.27
2016-08-29T15:32:13.648Z,81.85
2016-08-29T15:33:13.631Z,81.95
2016-08-29T15:34:13.663Z,81.95
2016-08-29T15:35:13.593Z,81.66
2016-08-29T15:36:13.595Z,81.95
2016-08-29T15:37:13.592Z,81.37
2016-08-29T15:38:13.584Z,81.76
2016-08-29T15:39:13.585Z,81.95
2016-08-29T15:40:13.653Z,81.9
2016-08-29T15:41:13.668Z,82.43
2016-08-29T15:42:13.596Z,82.53
2016-08-29T15:43:13.685Z,82.34
2016-08-29T15:44:13.670Z,83.11
2016-08-29T15:45:13.658Z,83.4
2016-08-29T15:46:13.681Z,83.11
2016-08-29T15:47:13.627Z,83.3
2016-08-29T15:48:13.667Z,81.85
2016-08-29T15:49:13.816Z,82.62
2016-08-29T15:50:13.606Z,81.95
2016-08-29T15:51:13.603Z,82.05
2016-08-29T15:52:13.691Z,81.47
2016-08-29T15:53:13.602Z,81.66
2016-08-29T15:54:14.005Z,81.99
2016-08-29T15:55:13.618Z,82.24
2016-08-29T15:56:13.691Z,82.28
2016-08-29T15:57:13.691Z,81.99
2016-08-29T15:58:13.608Z,81.85
2016-08-29T15:59:13.610Z,82.14
2016-08-29T16:00:13.649Z,81.76
2016-08-29T16:01:13.623Z,82.62
2016-08-29T16:02:13.631Z,82.43
2016-08-29T16:03:13.710Z,81.41
2016-08-29T16:04:13.624Z,80.87
2016-08-29T16:05:13.701Z,80.78
2016-08-29T16:06:13.622Z,79.81
2016-08-29T16:07:13.642Z,80.39
2016-08-29T16:08:13.708Z,79.81
2016-08-29T16:09:13.732Z,79.14
2016-08-29T16:10:13.712Z,78.41
2016-08-29T16:11:13.630Z,77.34
2016-08-29T16:12:13.705Z,77.53
2016-08-29T16:13:13.647Z,77.92
2016-08-29T16:14:13.711Z,78.21
2016-08-29T16:15:13.708Z,78.41
2016-08-29T16:16:13.713Z,78.27
2016-08-29T16:17:13.652Z,79.1
2016-08-29T16:18:13.648Z,79.29
2016-08-29T16:19:13.726Z,79.54
2016-08-29T16:20:13.721Z,80.22
2016-08-29T16:21:13.645Z,80.85
2016-08-29T16:22:13.645Z,81.43
2016-08-29T16:23:13.730Z,81.33
2016-08-29T16:24:13.656Z,82.45
2016-08-29T16:25:13.648Z,82.35
2016-08-29T16:26:13.656Z,82.16
2016-08-29T16:27:13.734Z,82.54
2016-08-29T16:28:13.654Z,82.35
2016-08-29T16:29:13.735Z,82.06
2016-08-29T16:30:13.658Z,83.41
2016-08-29T16:31:13.739Z,82.83
2016-08-29T16:32:13.757Z,83.03
2016-08-29T16:33:13.665Z,84.05
2016-08-29T16:34:13.671Z,83.89
2016-08-29T16:35:14.058Z,83.8
2016-08-29T16:36:13.671Z,84.23
2016-08-29T16:37:13.743Z,85
2016-08-29T16:38:13.684Z,84.91
2016-08-29T16:39:13.747Z,85.1
2016-08-29T16:40:13.753Z,84.81
2016-08-29T16:41:13.754Z,85.1
2016-08-29T16:42:13.753Z,85.49
2016-08-29T16:43:13.673Z,85.39
2016-08-29T16:44:13.691Z,85.63
2016-08-29T16:45:13.789Z,85.78
2016-08-29T16:46:13.765Z,84.91
2016-08-29T16:47:13.685Z,84.76
2016-08-29T16:48:13.802Z,84.95
2016-08-29T16:49:13.762Z,85.24
2016-08-29T16:50:13.691Z,84.28
2016-08-29T16:51:13.721Z,84.03
2016-08-29T16:52:13.699Z,83.84
2016-08-29T16:53:13.697Z,83.8
2016-08-29T16:54:13.774Z,83.26
2016-08-29T16:55:13.779Z,82.78
2016-08-29T16:56:13.803Z,81.81
2016-08-29T16:57:13.721Z,81.76
2016-08-29T16:58:13.771Z,81.37
2016-08-29T16:59:13.768Z,81.9
2016-08-29T17:00:13.781Z,80.64
2016-08-29T17:01:13.776Z,80.45
2016-08-29T17:02:13.710Z,80.83
2016-08-29T17:03:13.705Z,81.6
2016-08-29T17:04:13.725Z,82.09
2016-08-29T17:05:13.707Z,81.95
2016-08-29T17:06:13.717Z,82.62
2016-08-29T17:07:13.789Z,83.26
2016-08-29T17:08:13.790Z,83.36
2016-08-29T17:09:13.804Z,83.26
2016-08-29T17:10:13.720Z,83.45
2016-08-29T17:11:13.726Z,83.74
2016-08-29T17:12:13.793Z,84.03
2016-08-29T17:13:13.817Z,85.19
2016-08-29T17:14:13.792Z,85.53
2016-08-29T17:15:13.809Z,86.01
2016-08-29T17:16:13.725Z,85.63